createdAt,value
2023-04-28T00:04:41.664Z,13.90
2023-04-28T00:09:44.979Z,13.90
2023-04-28T00:14:49.405Z,14.00
2023-04-28T00:19:53.060Z,14.00
2023-04-28T00:24:56.193Z,14.00
2023-04-28T00:30:01.308Z,14.00
2023-04-28T00:35:04.512Z,14.00
2023-04-28T00:40:08.850Z,14.00
2023-04-28T00:45:13.451Z,14.10
2023-04-28T00:50:18.252Z,14.00
2023-04-28T00:55:21.611Z,14.00
2023-04-28T01:00:26.494Z,14.00
2023-04-28T01:05:30.875Z,14.00
2023-04-28T01:10:33.991Z,14.00
2023-04-28T01:15:38.722Z,14.00
2023-04-28T01:20:41.802Z,14.00
2023-04-28T01:25:46.415Z,13.90
2023-04-28T01:30:49.496Z,13.90
2023-04-28T01:35:52.570Z,13.90
2023-04-28T01:40:58.619Z,13.80
2023-04-28T01:46:01.715Z,13.80
2023-04-28T01:51:05.157Z,13.80
2023-04-28T01:56:09.675Z,13.70
2023-04-28T02:01:12.870Z,13.70
2023-04-28T02:06:16.157Z,13.70
2023-04-28T02:11:21.142Z,13.70
2023-04-28T02:16:24.314Z,13.70
2023-04-28T02:21:27.901Z,13.70
2023-04-28T02:26:32.569Z,13.70
2023-04-28T02:31:35.733Z,13.70
2023-04-28T02:36:40.096Z,13.70
2023-04-28T02:41:44.526Z,13.80
2023-04-28T02:46:47.668Z,13.80
2023-04-28T02:51:50.749Z,13.80
2023-04-28T02:56:55.286Z,13.70
2023-04-28T03:01:58.428Z,13.70
2023-04-28T03:07:01.588Z,13.60
2023-04-28T03:12:06.319Z,13.50
2023-04-28T03:17:09.382Z,13.60
2023-04-28T03:22:12.495Z,13.60
2023-04-28T03:27:17.003Z,13.70
2023-04-28T03:32:20.129Z,13.70
2023-04-28T03:37:23.453Z,13.70
2023-04-28T03:42:27.917Z,13.70
2023-04-28T03:47:31.102Z,13.60
2023-04-28T03:52:34.180Z,13.60
2023-04-28T03:57:38.632Z,13.50
2023-04-28T04:02:41.767Z,13.50
2023-04-28T04:07:44.909Z,13.40
2023-04-28T04:12:49.457Z,13.40
2023-04-28T04:17:52.598Z,13.30
2023-04-28T04:22:55.791Z,13.30
2023-04-28T04:28:00.792Z,13.30
2023-04-28T04:33:03.935Z,13.30
2023-04-28T04:38:07.493Z,13.30
2023-04-28T04:43:11.998Z,13.30
2023-04-28T04:48:15.150Z,13.40
2023-04-28T04:53:18.271Z,13.40
2023-04-28T04:58:22.904Z,13.50
2023-04-28T05:03:26.211Z,13.50
2023-04-28T05:08:29.457Z,13.50
2023-04-28T05:13:33.990Z,13.50
2023-04-28T05:18:37.117Z,13.50
2023-04-28T05:23:40.206Z,13.50
2023-04-28T05:28:44.715Z,13.50
2023-04-28T05:33:47.786Z,13.40
2023-04-28T05:38:51.018Z,13.50
2023-04-28T05:43:55.480Z,13.50
2023-04-28T05:48:58.758Z,13.50
2023-04-28T05:54:01.848Z,13.50
2023-04-28T05:59:06.549Z,13.40
2023-04-28T06:04:09.733Z,13.50
2023-04-28T06:09:12.949Z,13.50
2023-04-28T06:14:18.548Z,13.50
2023-04-28T06:19:21.908Z,13.50
2023-04-28T06:24:25.267Z,13.50
2023-04-28T06:29:29.820Z,13.60
2023-04-28T06:34:32.959Z,13.60
2023-04-28T06:39:36.291Z,13.60
2023-04-28T06:44:40.749Z,13.70
2023-04-28T06:49:45.598Z,13.70
2023-04-28T06:54:48.714Z,13.70
2023-04-28T06:59:53.399Z,13.70
2023-04-28T07:04:56.660Z,13.70
2023-04-28T07:10:00.581Z,13.70
2023-04-28T07:15:05.497Z,13.70
2023-04-28T07:20:09.858Z,13.80
2023-04-28T07:25:12.990Z,13.80
2023-04-28T07:30:27.291Z,13.90
2023-04-28T07:35:32.772Z,13.90
2023-04-28T07:40:35.920Z,14.00
2023-04-28T07:45:41.711Z,14.00
2023-04-28T07:50:44.886Z,14.00
2023-04-28T07:55:48.005Z,14.00
2023-04-28T08:00:52.443Z,14.00
2023-04-28T08:05:55.861Z,14.10
2023-04-28T08:10:59.220Z,14.10
2023-04-28T08:16:03.794Z,14.20
2023-04-28T08:21:06.970Z,14.30
2023-04-28T08:26:10.129Z,14.40
2023-04-28T08:31:14.689Z,14.40
2023-04-28T08:36:18.038Z,14.50
2023-04-28T08:41:21.845Z,14.50
2023-04-28T08:46:29.238Z,14.60
2023-04-28T08:51:37.058Z,14.60
2023-04-28T08:56:40.687Z,14.70
2023-04-28T09:01:45.231Z,14.80
2023-04-28T09:06:48.408Z,14.80
2023-04-28T09:11:56.557Z,14.90
2023-04-28T09:17:01.166Z,15.00
2023-04-28T09:22:17.677Z,15.00
2023-04-28T09:27:29.411Z,15.10
2023-04-28T09:32:34.369Z,15.20
2023-04-28T09:37:37.800Z,15.20
2023-04-28T09:42:42.571Z,15.20
2023-04-28T09:47:48.551Z,15.10
2023-04-28T09:52:59.175Z,15.20
2023-04-28T09:58:05.878Z,15.20
2023-04-28T10:03:11.781Z,15.20
2023-04-28T10:08:15.032Z,15.20
2023-04-28T10:13:19.482Z,15.30
2023-04-28T10:18:24.830Z,15.30
2023-04-28T10:23:58.655Z,15.30
2023-04-28T10:29:01.913Z,15.30
2023-04-28T10:34:25.496Z,15.30
2023-04-28T10:39:28.620Z,15.30
2023-04-28T10:44:44.809Z,15.30
2023-04-28T10:50:10.080Z,15.30
2023-04-28T10:55:32.881Z,15.30
2023-04-28T11:00:36.272Z,15.40
2023-04-28T11:05:40.759Z,15.40
2023-04-28T11:11:15.143Z,15.50
2023-04-28T11:16:21.188Z,15.50
2023-04-28T11:21:28.189Z,15.50
2023-04-28T11:26:32.215Z,15.50
2023-04-28T11:31:35.777Z,15.50
2023-04-28T11:36:41.951Z,15.50
2023-04-28T11:41:46.024Z,15.60
2023-04-28T11:46:53.772Z,15.60
2023-04-28T11:52:00.378Z,15.70
2023-04-28T11:57:05.017Z,15.70
2023-04-28T12:02:09.739Z,15.80
2023-04-28T12:07:15.833Z,15.90
2023-04-28T12:12:45.416Z,15.90
2023-04-28T12:17:53.337Z,16.00
2023-04-28T12:22:58.036Z,16.20
2023-04-28T12:28:02.478Z,16.30
2023-04-28T12:33:05.987Z,16.40
2023-04-28T12:38:14.025Z,16.60
2023-04-28T12:43:17.365Z,16.80
2023-04-28T12:48:20.525Z,17.00
2023-04-28T12:53:24.987Z,17.20
2023-04-28T12:58:28.035Z,17.40
2023-04-28T13:03:31.337Z,17.60
2023-04-28T13:08:36.198Z,17.70
2023-04-28T13:13:39.509Z,17.70
2023-04-28T13:18:42.579Z,17.70
2023-04-28T13:23:47.146Z,17.80
2023-04-28T13:28:50.224Z,17.80
2023-04-28T13:33:53.281Z,17.90
2023-04-28T13:38:58.613Z,17.90
2023-04-28T13:44:02.425Z,17.90
2023-04-28T13:50:01.855Z,17.90
2023-04-28T13:55:06.959Z,17.90
2023-04-28T14:00:11.609Z,17.80
2023-04-28T14:05:14.834Z,17.90
2023-04-28T14:10:19.407Z,17.80
2023-04-28T14:15:22.814Z,17.80
2023-04-28T14:20:27.898Z,17.90
2023-04-28T14:25:32.551Z,17.90
2023-04-28T14:30:36.078Z,17.90
2023-04-28T14:35:39.213Z,17.90
2023-04-28T14:40:43.988Z,17.90
2023-04-28T14:45:48.057Z,18.00
2023-04-28T14:50:51.416Z,18.00
2023-04-28T14:56:02.013Z,18.00
2023-04-28T15:01:10.593Z,18.00
2023-04-28T15:06:13.657Z,18.00
2023-04-28T15:11:18.094Z,18.00
2023-04-28T15:16:21.612Z,18.00
2023-04-28T15:21:24.891Z,18.00
2023-04-28T15:26:30.144Z,18.10
2023-04-28T15:31:33.674Z,18.00
2023-04-28T15:36:39.760Z,18.00
2023-04-28T15:41:44.195Z,17.90
2023-04-28T15:46:47.257Z,17.80
2023-04-28T15:51:50.422Z,17.80
2023-04-28T15:56:55.286Z,17.80
2023-04-28T16:01:58.366Z,17.80
2023-04-28T16:07:02.667Z,17.80
2023-04-28T16:12:07.550Z,17.80
2023-04-28T16:17:10.619Z,17.70
2023-04-28T16:22:13.727Z,17.70
2023-04-28T16:27:18.566Z,17.70
2023-04-28T16:32:21.854Z,17.70
2023-04-28T16:37:25.027Z,17.70
2023-04-28T16:42:29.476Z,17.70
2023-04-28T16:47:34.303Z,17.60
2023-04-28T16:52:37.715Z,17.60
2023-04-28T16:57:42.271Z,17.60
2023-04-28T17:02:45.569Z,17.70
2023-04-28T17:07:48.764Z,17.70
2023-04-28T17:12:53.518Z,17.70
2023-04-28T17:17:57.346Z,17.70
2023-04-28T17:23:00.465Z,17.70
2023-04-28T17:28:04.946Z,17.70
2023-04-28T17:33:08.061Z,17.70
2023-04-28T17:38:11.265Z,17.80
2023-04-28T17:43:16.245Z,17.70
2023-04-28T17:48:19.365Z,17.70
2023-04-28T17:53:22.600Z,17.80
2023-04-28T17:58:27.362Z,17.70
2023-04-28T18:03:30.987Z,17.70
2023-04-28T18:08:34.185Z,17.70
2023-04-28T18:13:38.612Z,17.60
2023-04-28T18:18:42.121Z,17.60
2023-04-28T18:23:47.063Z,17.60
2023-04-28T18:28:51.501Z,17.60
2023-04-28T18:33:55.254Z,17.60
2023-04-28T18:38:58.339Z,17.50
2023-04-28T18:44:03.956Z,17.50
2023-04-28T18:49:07.044Z,17.40
2023-04-28T18:54:10.190Z,17.30
2023-04-28T18:59:14.674Z,17.20
2023-04-28T19:04:17.900Z,17.10
2023-04-28T19:09:21.523Z,16.90
2023-04-28T19:14:26.045Z,16.80
2023-04-28T19:19:29.102Z,16.60
2023-04-28T19:24:32.456Z,16.50
2023-04-28T19:29:36.897Z,16.40
2023-04-28T19:34:39.947Z,16.30
2023-04-28T19:39:43.576Z,16.30
2023-04-28T19:44:48.813Z,16.30
2023-04-28T19:49:52.205Z,16.20
2023-04-28T19:54:55.750Z,16.20
2023-04-28T20:00:00.211Z,16.10
2023-04-28T20:05:03.756Z,16.00
2023-04-28T20:10:07.884Z,16.00
2023-04-28T20:15:12.529Z,16.00
2023-04-28T20:20:15.643Z,16.00
2023-04-28T20:25:18.966Z,15.80
2023-04-28T20:30:23.614Z,15.80
2023-04-28T20:35:26.696Z,15.70
2023-04-28T20:40:29.736Z,15.60
2023-04-28T20:45:35.162Z,15.50
2023-04-28T20:50:39.597Z,15.50
2023-04-28T20:55:42.659Z,15.50
2023-04-28T21:00:47.110Z,15.50
2023-04-28T21:05:50.595Z,15.60
2023-04-28T21:10:55.303Z,15.60
2023-04-28T21:15:59.758Z,15.70
2023-04-28T21:21:02.852Z,15.70
2023-04-28T21:26:06.716Z,15.80
2023-04-28T21:31:11.132Z,15.70
2023-04-28T21:36:14.351Z,15.70
2023-04-28T21:41:17.422Z,15.60
2023-04-28T21:46:21.930Z,15.60
2023-04-28T21:51:25.005Z,15.50
2023-04-28T21:56:28.064Z,15.50
2023-04-28T22:01:32.977Z,15.40
2023-04-28T22:06:36.394Z,15.30
2023-04-28T22:11:39.454Z,15.30
2023-04-28T22:16:43.905Z,15.20
2023-04-28T22:21:47.253Z,15.20
2023-04-28T22:26:50.379Z,15.20
2023-04-28T22:31:54.890Z,15.20
2023-04-28T22:36:57.985Z,15.10
2023-04-28T22:42:01.058Z,15.10
2023-04-28T22:47:05.533Z,15.10
2023-04-28T22:52:08.585Z,15.10
2023-04-28T22:57:11.646Z,15.10
2023-04-28T23:02:16.107Z,15.10
2023-04-28T23:07:19.281Z,15.10
2023-04-28T23:12:22.368Z,15.00
2023-04-28T23:17:27.071Z,15.00
2023-04-28T23:22:30.184Z,15.00
2023-04-28T23:27:33.253Z,15.00
2023-04-28T23:32:38.588Z,15.00
2023-04-28T23:37:42.064Z,15.00
2023-04-28T23:42:45.114Z,14.90
2023-04-28T23:47:49.580Z,14.90
2023-04-28T23:52:52.672Z,14.90
2023-04-28T23:57:55.762Z,14.90
